sensor_id;sensor_type;location;lat;lon;timestamp;P1;durP1;ratioP1;P2;durP2;ratioP2
40176;SDS011;31511;46.176;9.874;2022-08-19T00:00:29;7.25;;;4.00;;
40176;SDS011;31511;46.176;9.874;2022-08-19T00:02:55;9.63;;;3.33;;
40176;SDS011;31511;46.176;9.874;2022-08-19T00:05:21;5.60;;;2.25;;
40176;SDS011;31511;46.176;9.874;2022-08-19T00:07:47;6.00;;;3.13;;
40176;SDS011;31511;46.176;9.874;2022-08-19T00:10:14;6.60;;;2.97;;
40176;SDS011;31511;46.176;9.874;2022-08-19T00:12:41;7.57;;;2.97;;
40176;SDS011;31511;46.176;9.874;2022-08-19T00:15:09;5.78;;;2.92;;
40176;SDS011;31511;46.176;9.874;2022-08-19T00:17:37;5.47;;;2.22;;
40176;SDS011;31511;46.176;9.874;2022-08-19T00:20:04;4.53;;;2.72;;
40176;SDS011;31511;46.176;9.874;2022-08-19T00:22:30;9.05;;;3.10;;
40176;SDS011;31511;46.176;9.874;2022-08-19T00:24:57;3.63;;;2.30;;
40176;SDS011;31511;46.176;9.874;2022-08-19T00:27:25;6.18;;;2.70;;
40176;SDS011;31511;46.176;9.874;2022-08-19T00:29:53;8.68;;;3.38;;
40176;SDS011;31511;46.176;9.874;2022-08-19T00:32:21;6.68;;;2.92;;
40176;SDS011;31511;46.176;9.874;2022-08-19T00:34:50;10.02;;;4.25;;
40176;SDS011;31511;46.176;9.874;2022-08-19T00:37:17;7.85;;;3.17;;
40176;SDS011;31511;46.176;9.874;2022-08-19T00:39:44;7.13;;;3.60;;
40176;SDS011;31511;46.176;9.874;2022-08-19T00:42:11;5.60;;;3.80;;
40176;SDS011;31511;46.176;9.874;2022-08-19T00:44:39;10.02;;;3.92;;
40176;SDS011;31511;46.176;9.874;2022-08-19T00:47:05;5.32;;;3.17;;
40176;SDS011;31511;46.176;9.874;2022-08-19T00:49:36;4.07;;;2.50;;
40176;SDS011;31511;46.176;9.874;2022-08-19T00:52:04;5.70;;;2.60;;
40176;SDS011;31511;46.176;9.874;2022-08-19T00:54:33;7.10;;;2.63;;
40176;SDS011;31511;46.176;9.874;2022-08-19T00:57:01;8.13;;;3.05;;
40176;SDS011;31511;46.176;9.874;2022-08-19T00:59:28;3.40;;;2.30;;
40176;SDS011;31511;46.176;9.874;2022-08-19T01:01:54;8.82;;;3.70;;
40176;SDS011;31511;46.176;9.874;2022-08-19T01:04:20;5.80;;;2.65;;
40176;SDS011;31511;46.176;9.874;2022-08-19T01:06:46;7.60;;;3.80;;
40176;SDS011;31511;46.176;9.874;2022-08-19T01:09:13;5.72;;;3.65;;
40176;SDS011;31511;46.176;9.874;2022-08-19T01:11:41;8.00;;;3.03;;
40176;SDS011;31511;46.176;9.874;2022-08-19T01:14:10;5.65;;;3.03;;
40176;SDS011;31511;46.176;9.874;2022-08-19T01:16:38;8.48;;;2.92;;
40176;SDS011;31511;46.176;9.874;2022-08-19T01:19:10;8.15;;;2.22;;
40176;SDS011;31511;46.176;9.874;2022-08-19T01:21:42;6.25;;;2.47;;
40176;SDS011;31511;46.176;9.874;2022-08-19T01:24:12;8.43;;;3.10;;
40176;SDS011;31511;46.176;9.874;2022-08-19T01:26:40;7.03;;;3.08;;
40176;SDS011;31511;46.176;9.874;2022-08-19T01:29:08;10.63;;;3.83;;
40176;SDS011;31511;46.176;9.874;2022-08-19T01:31:36;6.10;;;2.70;;
40176;SDS011;31511;46.176;9.874;2022-08-19T01:34:04;7.07;;;3.05;;
40176;SDS011;31511;46.176;9.874;2022-08-19T01:36:43;6.32;;;3.08;;
40176;SDS011;31511;46.176;9.874;2022-08-19T01:39:18;4.03;;;3.00;;
40176;SDS011;31511;46.176;9.874;2022-08-19T01:41:47;6.75;;;3.35;;
40176;SDS011;31511;46.176;9.874;2022-08-19T01:44:14;6.50;;;4.05;;
40176;SDS011;31511;46.176;9.874;2022-08-19T01:46:41;8.27;;;3.50;;
40176;SDS011;31511;46.176;9.874;2022-08-19T01:49:07;8.45;;;4.20;;
40176;SDS011;31511;46.176;9.874;2022-08-19T01:51:35;4.97;;;3.17;;
40176;SDS011;31511;46.176;9.874;2022-08-19T01:54:01;8.18;;;2.85;;
40176;SDS011;31511;46.176;9.874;2022-08-19T01:56:29;10.02;;;3.38;;
40176;SDS011;31511;46.176;9.874;2022-08-19T01:58:57;6.60;;;3.75;;
40176;SDS011;31511;46.176;9.874;2022-08-19T02:01:24;6.60;;;3.05;;
40176;SDS011;31511;46.176;9.874;2022-08-19T02:03:50;7.60;;;3.65;;
40176;SDS011;31511;46.176;9.874;2022-08-19T02:06:20;6.30;;;3.72;;
40176;SDS011;31511;46.176;9.874;2022-08-19T02:08:48;6.47;;;3.13;;
40176;SDS011;31511;46.176;9.874;2022-08-19T02:11:23;4.75;;;2.60;;
40176;SDS011;31511;46.176;9.874;2022-08-19T02:13:53;3.28;;;2.42;;
40176;SDS011;31511;46.176;9.874;2022-08-19T02:16:20;5.25;;;2.10;;
40176;SDS011;31511;46.176;9.874;2022-08-19T02:18:49;13.23;;;3.88;;
40176;SDS011;31511;46.176;9.874;2022-08-19T02:21:19;6.80;;;2.67;;
40176;SDS011;31511;46.176;9.874;2022-08-19T02:23:47;6.45;;;2.53;;
40176;SDS011;31511;46.176;9.874;2022-08-19T02:26:14;10.52;;;3.50;;
40176;SDS011;31511;46.176;9.874;2022-08-19T02:28:42;8.18;;;3.40;;
40176;SDS011;31511;46.176;9.874;2022-08-19T02:31:09;5.80;;;2.80;;
40176;SDS011;31511;46.176;9.874;2022-08-19T02:33:37;5.00;;;2.00;;
40176;SDS011;31511;46.176;9.874;2022-08-19T02:36:04;4.72;;;1.65;;
40176;SDS011;31511;46.176;9.874;2022-08-19T02:38:31;8.13;;;1.80;;
40176;SDS011;31511;46.176;9.874;2022-08-19T02:41:02;4.47;;;2.63;;
40176;SDS011;31511;46.176;9.874;2022-08-19T02:43:30;7.15;;;3.25;;
40176;SDS011;31511;46.176;9.874;2022-08-19T02:45:56;11.25;;;3.22;;
40176;SDS011;31511;46.176;9.874;2022-08-19T02:48:24;3.70;;;3.00;;
40176;SDS011;31511;46.176;9.874;2022-08-19T02:50:53;9.55;;;3.45;;
40176;SDS011;31511;46.176;9.874;2022-08-19T02:53:24;8.50;;;3.90;;
40176;SDS011;31511;46.176;9.874;2022-08-19T02:55:54;6.90;;;3.35;;
40176;SDS011;31511;46.176;9.874;2022-08-19T02:58:22;11.55;;;3.72;;
40176;SDS011;31511;46.176;9.874;2022-08-19T03:00:53;9.88;;;3.85;;
40176;SDS011;31511;46.176;9.874;2022-08-19T03:03:20;8.27;;;3.83;;
40176;SDS011;31511;46.176;9.874;2022-08-19T03:05:46;8.25;;;3.97;;
40176;SDS011;31511;46.176;9.874;2022-08-19T03:08:13;6.75;;;3.55;;
40176;SDS011;31511;46.176;9.874;2022-08-19T03:10:41;7.20;;;2.88;;
40176;SDS011;31511;46.176;9.874;2022-08-19T03:13:09;10.45;;;3.20;;
40176;SDS011;31511;46.176;9.874;2022-08-19T03:15:39;6.55;;;2.92;;
40176;SDS011;31511;46.176;9.874;2022-08-19T03:18:05;13.98;;;3.25;;
40176;SDS011;31511;46.176;9.874;2022-08-19T03:20:31;5.68;;;3.55;;
40176;SDS011;31511;46.176;9.874;2022-08-19T03:22:58;7.22;;;3.53;;
40176;SDS011;31511;46.176;9.874;2022-08-19T03:25:26;6.78;;;3.15;;
40176;SDS011;31511;46.176;9.874;2022-08-19T03:27:54;8.32;;;3.45;;
40176;SDS011;31511;46.176;9.874;2022-08-19T03:30:20;3.53;;;2.80;;
40176;SDS011;31511;46.176;9.874;2022-08-19T03:32:46;6.90;;;3.35;;
40176;SDS011;31511;46.176;9.874;2022-08-19T03:35:13;5.32;;;3.28;;
40176;SDS011;31511;46.176;9.874;2022-08-19T03:37:41;9.07;;;4.20;;
40176;SDS011;31511;46.176;9.874;2022-08-19T03:40:07;3.63;;;2.42;;
40176;SDS011;31511;46.176;9.874;2022-08-19T03:42:34;5.30;;;2.80;;
40176;SDS011;31511;46.176;9.874;2022-08-19T03:45:00;9.68;;;2.92;;
40176;SDS011;31511;46.176;9.874;2022-08-19T03:47:28;5.07;;;3.03;;
40176;SDS011;31511;46.176;9.874;2022-08-19T03:49:56;6.88;;;3.00;;
40176;SDS011;31511;46.176;9.874;2022-08-19T03:52:24;7.25;;;3.22;;
40176;SDS011;31511;46.176;9.874;2022-08-19T03:54:52;6.70;;;3.25;;
40176;SDS011;31511;46.176;9.874;2022-08-19T03:57:20;5.10;;;2.80;;
40176;SDS011;31511;46.176;9.874;2022-08-19T03:59:48;4.80;;;2.50;;
40176;SDS011;31511;46.176;9.874;2022-08-19T04:02:14;4.00;;;2.88;;
40176;SDS011;31511;46.176;9.874;2022-08-19T04:04:41;5.22;;;3.13;;
40176;SDS011;31511;46.176;9.874;2022-08-19T04:07:08;4.63;;;3.30;;
40176;SDS011;31511;46.176;9.874;2022-08-19T04:09:35;3.30;;;2.35;;
40176;SDS011;31511;46.176;9.874;2022-08-19T04:12:04;3.72;;;2.55;;
40176;SDS011;31511;46.176;9.874;2022-08-19T04:14:31;3.95;;;2.92;;
40176;SDS011;31511;46.176;9.874;2022-08-19T04:16:59;6.35;;;2.85;;
40176;SDS011;31511;46.176;9.874;2022-08-19T04:19:29;6.93;;;3.17;;
40176;SDS011;31511;46.176;9.874;2022-08-19T04:21:56;10.88;;;3.85;;
40176;SDS011;31511;46.176;9.874;2022-08-19T04:24:23;9.32;;;3.47;;
40176;SDS011;31511;46.176;9.874;2022-08-19T04:26:52;8.85;;;3.67;;
40176;SDS011;31511;46.176;9.874;2022-08-19T04:29:23;7.45;;;2.55;;
40176;SDS011;31511;46.176;9.874;2022-08-19T04:31:53;15.13;;;4.05;;
40176;SDS011;31511;46.176;9.874;2022-08-19T04:34:23;3.67;;;2.67;;
40176;SDS011;31511;46.176;9.874;2022-08-19T04:36:53;8.40;;;3.42;;
40176;SDS011;31511;46.176;9.874;2022-08-19T04:39:22;6.57;;;3.10;;
40176;SDS011;31511;46.176;9.874;2022-08-19T04:42:09;4.50;;;2.83;;
40176;SDS011;31511;46.176;9.874;2022-08-19T04:44:54;9.93;;;3.60;;
40176;SDS011;31511;46.176;9.874;2022-08-19T04:47:22;5.63;;;2.80;;
40176;SDS011;31511;46.176;9.874;2022-08-19T04:49:50;9.38;;;3.92;;
40176;SDS011;31511;46.176;9.874;2022-08-19T04:52:16;6.25;;;3.20;;
40176;SDS011;31511;46.176;9.874;2022-08-19T04:54:44;5.38;;;2.83;;
40176;SDS011;31511;46.176;9.874;2022-08-19T04:57:11;5.88;;;3.13;;
40176;SDS011;31511;46.176;9.874;2022-08-19T04:59:38;5.20;;;2.83;;
40176;SDS011;31511;46.176;9.874;2022-08-19T05:02:06;6.78;;;3.25;;
40176;SDS011;31511;46.176;9.874;2022-08-19T05:04:32;7.78;;;2.90;;
40176;SDS011;31511;46.176;9.874;2022-08-19T05:07:00;6.00;;;3.08;;
40176;SDS011;31511;46.176;9.874;2022-08-19T05:09:28;6.47;;;4.05;;
40176;SDS011;31511;46.176;9.874;2022-08-19T05:11:56;5.25;;;3.35;;
40176;SDS011;31511;46.176;9.874;2022-08-19T05:14:24;9.73;;;2.95;;
40176;SDS011;31511;46.176;9.874;2022-08-19T05:16:52;7.15;;;3.28;;
40176;SDS011;31511;46.176;9.874;2022-08-19T05:19:20;4.78;;;3.72;;
40176;SDS011;31511;46.176;9.874;2022-08-19T05:22:04;5.78;;;2.92;;
40176;SDS011;31511;46.176;9.874;2022-08-19T05:24:50;2.58;;;1.83;;
40176;SDS011;31511;46.176;9.874;2022-08-19T05:27:16;3.88;;;2.42;;
40176;SDS011;31511;46.176;9.874;2022-08-19T05:29:42;4.70;;;2.88;;
40176;SDS011;31511;46.176;9.874;2022-08-19T05:32:09;3.33;;;1.95;;
40176;SDS011;31511;46.176;9.874;2022-08-19T05:34:36;3.70;;;2.03;;
40176;SDS011;31511;46.176;9.874;2022-08-19T05:37:03;7.72;;;2.42;;
40176;SDS011;31511;46.176;9.874;2022-08-19T05:39:31;4.38;;;1.70;;
40176;SDS011;31511;46.176;9.874;2022-08-19T05:41:58;4.95;;;1.98;;
40176;SDS011;31511;46.176;9.874;2022-08-19T05:44:30;5.97;;;1.80;;
40176;SDS011;31511;46.176;9.874;2022-08-19T05:46:57;4.47;;;3.30;;
40176;SDS011;31511;46.176;9.874;2022-08-19T05:49:26;10.68;;;3.05;;
40176;SDS011;31511;46.176;9.874;2022-08-19T05:51:55;9.95;;;3.15;;
40176;SDS011;31511;46.176;9.874;2022-08-19T05:54:23;8.43;;;3.80;;
40176;SDS011;31511;46.176;9.874;2022-08-19T05:56:52;4.57;;;2.92;;
40176;SDS011;31511;46.176;9.874;2022-08-19T05:59:20;8.85;;;3.75;;
40176;SDS011;31511;46.176;9.874;2022-08-19T06:01:49;5.90;;;2.67;;
40176;SDS011;31511;46.176;9.874;2022-08-19T06:04:17;2.72;;;2.42;;
40176;SDS011;31511;46.176;9.874;2022-08-19T06:06:45;7.53;;;3.47;;
40176;SDS011;31511;46.176;9.874;2022-08-19T06:09:11;3.42;;;1.92;;
40176;SDS011;31511;46.176;9.874;2022-08-19T06:11:46;3.17;;;2.20;;
40176;SDS011;31511;46.176;9.874;2022-08-19T06:14:16;6.00;;;2.92;;
40176;SDS011;31511;46.176;9.874;2022-08-19T06:16:46;5.63;;;3.28;;
40176;SDS011;31511;46.176;9.874;2022-08-19T06:19:14;6.15;;;3.08;;
40176;SDS011;31511;46.176;9.874;2022-08-19T06:21:42;5.10;;;3.35;;
40176;SDS011;31511;46.176;9.874;2022-08-19T06:24:09;6.57;;;2.58;;
40176;SDS011;31511;46.176;9.874;2022-08-19T06:26:38;5.60;;;2.70;;
40176;SDS011;31511;46.176;9.874;2022-08-19T06:29:04;8.00;;;4.00;;
40176;SDS011;31511;46.176;9.874;2022-08-19T06:31:32;6.25;;;3.25;;
40176;SDS011;31511;46.176;9.874;2022-08-19T06:33:59;5.65;;;2.75;;
40176;SDS011;31511;46.176;9.874;2022-08-19T06:36:31;5.70;;;3.05;;
40176;SDS011;31511;46.176;9.874;2022-08-19T06:38:58;16.35;;;4.03;;
40176;SDS011;31511;46.176;9.874;2022-08-19T06:41:27;5.38;;;2.95;;
40176;SDS011;31511;46.176;9.874;2022-08-19T06:43:55;3.83;;;2.40;;
40176;SDS011;31511;46.176;9.874;2022-08-19T06:46:23;10.23;;;3.15;;
40176;SDS011;31511;46.176;9.874;2022-08-19T06:48:52;5.55;;;3.00;;
40176;SDS011;31511;46.176;9.874;2022-08-19T06:51:21;4.20;;;2.97;;
40176;SDS011;31511;46.176;9.874;2022-08-19T06:53:51;6.70;;;3.38;;
40176;SDS011;31511;46.176;9.874;2022-08-19T06:56:19;5.10;;;3.60;;
40176;SDS011;31511;46.176;9.874;2022-08-19T06:58:47;7.45;;;2.72;;
40176;SDS011;31511;46.176;9.874;2022-08-19T07:01:16;7.43;;;4.05;;
40176;SDS011;31511;46.176;9.874;2022-08-19T07:03:42;9.43;;;3.50;;
40176;SDS011;31511;46.176;9.874;2022-08-19T07:06:10;6.03;;;2.58;;
40176;SDS011;31511;46.176;9.874;2022-08-19T07:08:38;7.53;;;2.80;;
40176;SDS011;31511;46.176;9.874;2022-08-19T07:11:07;3.70;;;2.95;;
40176;SDS011;31511;46.176;9.874;2022-08-19T07:13:35;5.05;;;3.33;;
40176;SDS011;31511;46.176;9.874;2022-08-19T07:16:09;4.32;;;2.58;;
40176;SDS011;31511;46.176;9.874;2022-08-19T07:18:37;7.50;;;3.00;;
40176;SDS011;31511;46.176;9.874;2022-08-19T07:21:23;8.85;;;3.08;;
40176;SDS011;31511;46.176;9.874;2022-08-19T07:23:54;4.05;;;2.90;;
40176;SDS011;31511;46.176;9.874;2022-08-19T07:26:26;3.10;;;2.70;;
40176;SDS011;31511;46.176;9.874;2022-08-19T07:28:54;3.78;;;2.45;;
40176;SDS011;31511;46.176;9.874;2022-08-19T07:31:23;5.90;;;3.00;;
40176;SDS011;31511;46.176;9.874;2022-08-19T07:33:52;3.95;;;2.80;;
40176;SDS011;31511;46.176;9.874;2022-08-19T07:36:23;5.72;;;2.40;;
40176;SDS011;31511;46.176;9.874;2022-08-19T07:38:57;5.85;;;2.25;;
40176;SDS011;31511;46.176;9.874;2022-08-19T07:41:25;3.28;;;2.42;;
40176;SDS011;31511;46.176;9.874;2022-08-19T07:43:56;5.53;;;1.95;;
40176;SDS011;31511;46.176;9.874;2022-08-19T07:46:24;5.43;;;2.38;;
40176;SDS011;31511;46.176;9.874;2022-08-19T07:48:54;3.33;;;2.33;;
40176;SDS011;31511;46.176;9.874;2022-08-19T07:51:21;4.90;;;2.80;;
40176;SDS011;31511;46.176;9.874;2022-08-19T07:53:49;3.92;;;2.17;;
40176;SDS011;31511;46.176;9.874;2022-08-19T07:56:16;5.82;;;2.00;;
40176;SDS011;31511;46.176;9.874;2022-08-19T07:58:45;9.18;;;2.72;;
40176;SDS011;31511;46.176;9.874;2022-08-19T08:01:13;4.50;;;2.65;;
40176;SDS011;31511;46.176;9.874;2022-08-19T08:03:39;9.85;;;2.50;;
40176;SDS011;31511;46.176;9.874;2022-08-19T08:06:26;4.35;;;2.70;;
40176;SDS011;31511;46.176;9.874;2022-08-19T08:09:12;4.18;;;2.78;;
40176;SDS011;31511;46.176;9.874;2022-08-19T08:11:48;5.72;;;2.33;;
40176;SDS011;31511;46.176;9.874;2022-08-19T08:14:17;3.80;;;2.50;;
40176;SDS011;31511;46.176;9.874;2022-08-19T08:16:43;5.22;;;3.22;;
40176;SDS011;31511;46.176;9.874;2022-08-19T08:19:11;6.20;;;2.45;;
40176;SDS011;31511;46.176;9.874;2022-08-19T08:21:40;4.03;;;2.53;;
40176;SDS011;31511;46.176;9.874;2022-08-19T08:24:06;7.47;;;2.47;;
40176;SDS011;31511;46.176;9.874;2022-08-19T08:26:33;4.45;;;2.33;;
40176;SDS011;31511;46.176;9.874;2022-08-19T08:28:59;5.25;;;1.52;;
40176;SDS011;31511;46.176;9.874;2022-08-19T08:31:26;2.33;;;1.58;;
40176;SDS011;31511;46.176;9.874;2022-08-19T08:33:55;4.75;;;1.63;;
40176;SDS011;31511;46.176;9.874;2022-08-19T08:36:22;1.90;;;1.70;;
40176;SDS011;31511;46.176;9.874;2022-08-19T08:38:51;6.57;;;2.20;;
40176;SDS011;31511;46.176;9.874;2022-08-19T08:41:31;6.20;;;1.70;;
40176;SDS011;31511;46.176;9.874;2022-08-19T08:44:00;5.40;;;2.22;;
40176;SDS011;31511;46.176;9.874;2022-08-19T08:51:25;6.15;;;2.40;;
40176;SDS011;31511;46.176;9.874;2022-08-19T08:56:23;3.67;;;2.80;;
40176;SDS011;31511;46.176;9.874;2022-08-19T09:01:24;7.07;;;2.58;;
40176;SDS011;31511;46.176;9.874;2022-08-19T09:03:51;6.25;;;2.38;;
40176;SDS011;31511;46.176;9.874;2022-08-19T09:11:29;5.00;;;2.40;;
40176;SDS011;31511;46.176;9.874;2022-08-19T09:14:02;4.35;;;2.10;;
40176;SDS011;31511;46.176;9.874;2022-08-19T09:16:34;3.30;;;2.22;;
40176;SDS011;31511;46.176;9.874;2022-08-19T09:19:02;4.45;;;2.08;;
40176;SDS011;31511;46.176;9.874;2022-08-19T09:21:30;5.00;;;2.22;;
40176;SDS011;31511;46.176;9.874;2022-08-19T09:23:57;5.00;;;2.67;;
40176;SDS011;31511;46.176;9.874;2022-08-19T09:26:25;4.57;;;2.63;;
40176;SDS011;31511;46.176;9.874;2022-08-19T09:28:54;4.63;;;2.50;;
40176;SDS011;31511;46.176;9.874;2022-08-19T09:31:24;3.60;;;2.30;;
40176;SDS011;31511;46.176;9.874;2022-08-19T09:33:53;4.43;;;2.60;;
40176;SDS011;31511;46.176;9.874;2022-08-19T09:36:25;3.53;;;2.08;;
40176;SDS011;31511;46.176;9.874;2022-08-19T09:38:57;5.80;;;2.15;;
40176;SDS011;31511;46.176;9.874;2022-08-19T09:41:26;7.18;;;2.85;;
40176;SDS011;31511;46.176;9.874;2022-08-19T09:43:55;3.25;;;1.95;;
40176;SDS011;31511;46.176;9.874;2022-08-19T09:46:24;4.78;;;2.42;;
40176;SDS011;31511;46.176;9.874;2022-08-19T09:48:54;4.35;;;2.08;;
40176;SDS011;31511;46.176;9.874;2022-08-19T09:51:25;8.80;;;1.95;;
40176;SDS011;31511;46.176;9.874;2022-08-19T09:53:58;4.07;;;1.50;;
40176;SDS011;31511;46.176;9.874;2022-08-19T09:56:26;5.57;;;2.05;;
40176;SDS011;31511;46.176;9.874;2022-08-19T09:58:57;2.10;;;1.70;;
40176;SDS011;31511;46.176;9.874;2022-08-19T10:01:25;2.30;;;1.70;;
40176;SDS011;31511;46.176;9.874;2022-08-19T10:03:55;2.85;;;2.00;;
40176;SDS011;31511;46.176;9.874;2022-08-19T10:06:23;2.38;;;1.42;;
40176;SDS011;31511;46.176;9.874;2022-08-19T10:08:55;3.97;;;2.00;;
40176;SDS011;31511;46.176;9.874;2022-08-19T10:11:23;3.60;;;1.50;;
40176;SDS011;31511;46.176;9.874;2022-08-19T10:13:52;9.80;;;2.22;;
40176;SDS011;31511;46.176;9.874;2022-08-19T10:16:19;4.32;;;2.22;;
40176;SDS011;31511;46.176;9.874;2022-08-19T10:18:48;2.55;;;1.55;;
40176;SDS011;31511;46.176;9.874;2022-08-19T10:21:16;2.60;;;2.03;;
40176;SDS011;31511;46.176;9.874;2022-08-19T10:23:43;3.08;;;2.00;;
40176;SDS011;31511;46.176;9.874;2022-08-19T10:26:11;4.43;;;1.55;;
40176;SDS011;31511;46.176;9.874;2022-08-19T10:28:38;6.57;;;2.10;;
40176;SDS011;31511;46.176;9.874;2022-08-19T10:31:06;6.63;;;1.95;;
40176;SDS011;31511;46.176;9.874;2022-08-19T10:33:34;5.20;;;2.35;;
40176;SDS011;31511;46.176;9.874;2022-08-19T10:36:04;5.10;;;1.90;;
40176;SDS011;31511;46.176;9.874;2022-08-19T10:38:30;4.85;;;1.98;;
40176;SDS011;31511;46.176;9.874;2022-08-19T10:40:57;4.65;;;1.92;;
40176;SDS011;31511;46.176;9.874;2022-08-19T10:43:25;5.45;;;2.35;;
40176;SDS011;31511;46.176;9.874;2022-08-19T10:45:54;7.68;;;2.75;;
40176;SDS011;31511;46.176;9.874;2022-08-19T10:48:23;7.47;;;2.38;;
40176;SDS011;31511;46.176;9.874;2022-08-19T10:50:51;4.35;;;2.40;;
40176;SDS011;31511;46.176;9.874;2022-08-19T10:53:36;2.35;;;1.85;;
40176;SDS011;31511;46.176;9.874;2022-08-19T10:56:02;5.45;;;1.83;;
40176;SDS011;31511;46.176;9.874;2022-08-19T10:58:48;3.80;;;1.67;;
40176;SDS011;31511;46.176;9.874;2022-08-19T11:01:14;7.80;;;2.42;;
40176;SDS011;31511;46.176;9.874;2022-08-19T11:03:40;3.58;;;1.75;;
40176;SDS011;31511;46.176;9.874;2022-08-19T11:06:07;3.05;;;1.73;;
40176;SDS011;31511;46.176;9.874;2022-08-19T11:08:35;3.60;;;1.83;;
40176;SDS011;31511;46.176;9.874;2022-08-19T11:11:03;5.25;;;1.92;;
40176;SDS011;31511;46.176;9.874;2022-08-19T11:13:31;3.67;;;1.88;;
40176;SDS011;31511;46.176;9.874;2022-08-19T11:16:03;3.03;;;1.88;;
40176;SDS011;31511;46.176;9.874;2022-08-19T11:18:30;3.72;;;1.58;;
40176;SDS011;31511;46.176;9.874;2022-08-19T11:21:04;2.30;;;1.50;;
40176;SDS011;31511;46.176;9.874;2022-08-19T11:23:31;7.45;;;1.67;;
40176;SDS011;31511;46.176;9.874;2022-08-19T11:25:57;3.33;;;1.65;;
40176;SDS011;31511;46.176;9.874;2022-08-19T11:28:26;3.60;;;1.65;;
40176;SDS011;31511;46.176;9.874;2022-08-19T11:30:55;6.90;;;1.67;;
40176;SDS011;31511;46.176;9.874;2022-08-19T11:33:22;2.35;;;1.30;;
40176;SDS011;31511;46.176;9.874;2022-08-19T11:35:52;3.10;;;1.60;;
40176;SDS011;31511;46.176;9.874;2022-08-19T11:38:20;2.80;;;1.83;;
40176;SDS011;31511;46.176;9.874;2022-08-19T11:40:55;2.83;;;1.70;;
40176;SDS011;31511;46.176;9.874;2022-08-19T11:43:22;7.05;;;2.15;;
40176;SDS011;31511;46.176;9.874;2022-08-19T11:45:53;4.65;;;2.72;;
40176;SDS011;31511;46.176;9.874;2022-08-19T11:48:20;5.82;;;2.47;;
40176;SDS011;31511;46.176;9.874;2022-08-19T11:50:52;4.47;;;2.00;;
40176;SDS011;31511;46.176;9.874;2022-08-19T11:53:23;4.32;;;2.17;;
40176;SDS011;31511;46.176;9.874;2022-08-19T11:55:52;4.40;;;2.10;;
40176;SDS011;31511;46.176;9.874;2022-08-19T11:58:22;3.90;;;1.83;;
40176;SDS011;31511;46.176;9.874;2022-08-19T12:00:53;3.15;;;1.90;;
40176;SDS011;31511;46.176;9.874;2022-08-19T12:03:20;4.18;;;1.67;;
40176;SDS011;31511;46.176;9.874;2022-08-19T12:05:49;3.78;;;2.28;;
40176;SDS011;31511;46.176;9.874;2022-08-19T12:08:15;3.58;;;1.85;;
40176;SDS011;31511;46.176;9.874;2022-08-19T12:10:42;5.50;;;2.08;;
40176;SDS011;31511;46.176;9.874;2022-08-19T12:13:09;4.93;;;1.83;;
40176;SDS011;31511;46.176;9.874;2022-08-19T12:15:37;3.38;;;1.55;;
40176;SDS011;31511;46.176;9.874;2022-08-19T12:18:06;3.88;;;1.38;;
40176;SDS011;31511;46.176;9.874;2022-08-19T12:20:35;3.00;;;1.08;;
40176;SDS011;31511;46.176;9.874;2022-08-19T12:23:02;5.22;;;1.30;;
40176;SDS011;31511;46.176;9.874;2022-08-19T12:25:30;3.38;;;0.98;;
40176;SDS011;31511;46.176;9.874;2022-08-19T12:27:57;3.85;;;1.02;;
40176;SDS011;31511;46.176;9.874;2022-08-19T12:30:23;3.45;;;1.13;;
40176;SDS011;31511;46.176;9.874;2022-08-19T12:32:50;2.40;;;0.95;;
40176;SDS011;31511;46.176;9.874;2022-08-19T12:35:16;2.42;;;0.98;;
40176;SDS011;31511;46.176;9.874;2022-08-19T12:37:46;2.00;;;1.15;;
40176;SDS011;31511;46.176;9.874;2022-08-19T12:40:13;1.75;;;0.70;;
40176;SDS011;31511;46.176;9.874;2022-08-19T12:42:41;2.13;;;1.00;;
40176;SDS011;31511;46.176;9.874;2022-08-19T12:45:08;1.15;;;0.80;;
40176;SDS011;31511;46.176;9.874;2022-08-19T12:47:35;2.50;;;1.20;;
40176;SDS011;31511;46.176;9.874;2022-08-19T12:50:02;3.95;;;0.90;;
40176;SDS011;31511;46.176;9.874;2022-08-19T12:52:30;4.85;;;1.00;;
40176;SDS011;31511;46.176;9.874;2022-08-19T12:54:56;1.73;;;0.80;;
40176;SDS011;31511;46.176;9.874;2022-08-19T12:57:24;2.67;;;0.80;;
40176;SDS011;31511;46.176;9.874;2022-08-19T12:59:53;3.97;;;1.02;;
40176;SDS011;31511;46.176;9.874;2022-08-19T13:02:20;1.15;;;0.77;;
40176;SDS011;31511;46.176;9.874;2022-08-19T13:04:46;2.78;;;0.70;;
40176;SDS011;31511;46.176;9.874;2022-08-19T13:07:12;2.20;;;1.23;;
40176;SDS011;31511;46.176;9.874;2022-08-19T13:09:39;2.47;;;1.05;;
40176;SDS011;31511;46.176;9.874;2022-08-19T13:12:07;1.25;;;0.63;;
40176;SDS011;31511;46.176;9.874;2022-08-19T13:14:39;1.38;;;0.63;;
40176;SDS011;31511;46.176;9.874;2022-08-19T13:17:06;3.25;;;0.90;;
40176;SDS011;31511;46.176;9.874;2022-08-19T13:19:35;0.65;;;0.50;;
40176;SDS011;31511;46.176;9.874;2022-08-19T13:22:01;1.70;;;0.77;;
40176;SDS011;31511;46.176;9.874;2022-08-19T13:24:29;0.88;;;0.52;;
40176;SDS011;31511;46.176;9.874;2022-08-19T13:26:56;0.40;;;0.40;;
40176;SDS011;31511;46.176;9.874;2022-08-19T13:29:23;1.40;;;0.73;;
40176;SDS011;31511;46.176;9.874;2022-08-19T13:32:08;1.38;;;0.50;;
40176;SDS011;31511;46.176;9.874;2022-08-19T13:34:54;0.50;;;0.45;;
40176;SDS011;31511;46.176;9.874;2022-08-19T13:37:21;0.82;;;0.50;;
40176;SDS011;31511;46.176;9.874;2022-08-19T13:40:13;2.15;;;0.25;;
40176;SDS011;31511;46.176;9.874;2022-08-19T13:42:42;0.60;;;0.40;;
40176;SDS011;31511;46.176;9.874;2022-08-19T13:45:09;0.73;;;0.40;;
40176;SDS011;31511;46.176;9.874;2022-08-19T13:47:37;0.40;;;0.40;;
40176;SDS011;31511;46.176;9.874;2022-08-19T13:50:12;1.88;;;0.57;;
40176;SDS011;31511;46.176;9.874;2022-08-19T13:52:40;0.75;;;0.40;;
40176;SDS011;31511;46.176;9.874;2022-08-19T13:55:06;0.93;;;0.20;;
40176;SDS011;31511;46.176;9.874;2022-08-19T13:57:33;0.63;;;0.43;;
40176;SDS011;31511;46.176;9.874;2022-08-19T14:00:00;0.20;;;0.20;;
40176;SDS011;31511;46.176;9.874;2022-08-19T14:02:29;2.03;;;0.40;;
40176;SDS011;31511;46.176;9.874;2022-08-19T14:04:55;1.27;;;0.30;;
40176;SDS011;31511;46.176;9.874;2022-08-19T14:07:23;1.73;;;0.75;;
40176;SDS011;31511;46.176;9.874;2022-08-19T14:09:51;1.42;;;0.38;;
40176;SDS011;31511;46.176;9.874;2022-08-19T14:12:21;1.23;;;0.50;;
40176;SDS011;31511;46.176;9.874;2022-08-19T14:14:50;0.90;;;0.45;;
40176;SDS011;31511;46.176;9.874;2022-08-19T14:17:17;0.52;;;0.45;;
40176;SDS011;31511;46.176;9.874;2022-08-19T14:19:45;0.95;;;0.40;;
40176;SDS011;31511;46.176;9.874;2022-08-19T14:22:11;0.85;;;0.30;;
40176;SDS011;31511;46.176;9.874;2022-08-19T14:24:38;0.82;;;0.60;;
40176;SDS011;31511;46.176;9.874;2022-08-19T14:27:05;0.80;;;0.60;;
40176;SDS011;31511;46.176;9.874;2022-08-19T14:29:32;0.75;;;0.40;;
40176;SDS011;31511;46.176;9.874;2022-08-19T14:31:58;0.95;;;0.30;;
40176;SDS011;31511;46.176;9.874;2022-08-19T14:34:26;0.30;;;0.20;;
40176;SDS011;31511;46.176;9.874;2022-08-19T14:36:56;0.50;;;0.17;;
40176;SDS011;31511;46.176;9.874;2022-08-19T14:39:24;0.10;;;0.10;;
40176;SDS011;31511;46.176;9.874;2022-08-19T14:41:53;0.52;;;0.20;;
40176;SDS011;31511;46.176;9.874;2022-08-19T14:44:20;3.60;;;0.20;;
40176;SDS011;31511;46.176;9.874;2022-08-19T14:46:49;0.85;;;0.30;;
40176;SDS011;31511;46.176;9.874;2022-08-19T14:49:15;0.75;;;0.20;;
40176;SDS011;31511;46.176;9.874;2022-08-19T14:51:42;0.25;;;0.20;;
40176;SDS011;31511;46.176;9.874;2022-08-19T14:54:12;0.10;;;0.10;;
40176;SDS011;31511;46.176;9.874;2022-08-19T14:56:39;0.32;;;0.10;;
40176;SDS011;31511;46.176;9.874;2022-08-19T14:59:06;1.25;;;0.20;;
40176;SDS011;31511;46.176;9.874;2022-08-19T15:01:32;0.30;;;0.10;;
40176;SDS011;31511;46.176;9.874;2022-08-19T15:03:59;0.43;;;0.20;;
40176;SDS011;31511;46.176;9.874;2022-08-19T15:06:27;1.38;;;0.30;;
40176;SDS011;31511;46.176;9.874;2022-08-19T15:08:57;1.75;;;0.20;;
40176;SDS011;31511;46.176;9.874;2022-08-19T15:11:27;0.22;;;0.20;;